HomeShort term forecast

Short term forecast

Graphical weather forecast for the next 48 hours for Montreal:
Short term forecast
This weather forecast is automatically refreshed every 3 hours.

Hourly Experimental Forecast for the next 48 hours ®

Overall summary: Mostly cloudy throughout the day and breezy starting tomorrow morning, continuing until tomorrow evening.

 Date & Hour   Temp   Feel   Baro   Hum   Speed & Bearing   Precipitation   Visibility   Cloud cover   Conditions 
 19/01/2018 - 22:00  -0.7°C  -5.6°C  1006.6 hPa  74%  16.6 km/h   0.01 mm/h  16.1km  78%  Mostly Cloudy 
 19/01/2018 - 23:00  -0.5°C  -5.5°C  1005.4 hPa  75%  17.4 km/h   0.03 mm/h  16.1km  86%  Mostly Cloudy 
 20/01/2018 - 00:00  -0.3°C  -5.4°C  1004.0 hPa  78%  18.6 km/h   0.10 mm/h  16.1km  95%  Overcast 
 20/01/2018 - 01:00  0.1°C  -5.1°C  1002.9 hPa  79%  20.0 km/h   0.17 mm/h  16.1km  100%  Overcast 
 20/01/2018 - 02:00  0.4°C  -4.9°C  1002.2 hPa  79%  21.5 km/h   0.15 mm/h  16.1km  93%  Mostly Cloudy 
 20/01/2018 - 03:00  0.7°C  -4.7°C  1001.6 hPa  78%  23.3 km/h   0.09 mm/h  16.1km  82%  Mostly Cloudy 
 20/01/2018 - 04:00  0.9°C  -4.8°C  1001.1 hPa  78%  25.7 km/h   0.06 mm/h  16.1km  77%  Breezy and Mostly Cloudy 
 20/01/2018 - 05:00  0.9°C  -5.3°C  1000.6 hPa  79%  29.2 km/h   0.05 mm/h  16.1km  80%  Windy and Mostly Cloudy 
 20/01/2018 - 06:00  0.7°C  -5.8°C  1000.1 hPa  81%  33.2 km/h   0.05 mm/h  16.1km  88%  Windy and Mostly Cloudy 
 20/01/2018 - 07:00  0.6°C  -6.2°C  1000.1 hPa  82%  36.0 km/h   0.04 mm/h  16.1km  95%  Windy and Overcast 
 20/01/2018 - 08:00  0.5°C  -6.4°C  1000.6 hPa  84%  36.8 km/h   0.03 mm/h  16.1km  97%  Windy and Overcast 
 20/01/2018 - 09:00  0.4°C  -6.6°C  1001.6 hPa  86%  36.6 km/h   0.02 mm/h  16.1km  98%  Windy and Overcast 
 20/01/2018 - 10:00  0.4°C  -6.6°C  1002.4 hPa  88%  36.1 km/h   0.01 mm/h  16.1km  96%  Breezy and Overcast 
 20/01/2018 - 11:00  0.5°C  -6.4°C  1002.8 hPa  91%  35.6 km/h   0.01 mm/h  16.1km  91%  Breezy and Mostly Cloudy 
 20/01/2018 - 12:00  0.8°C  -5.9°C  1003.0 hPa  93%  34.8 km/h   0.01 mm/h  16.1km  83%  Breezy and Mostly Cloudy 
 20/01/2018 - 13:00  1.2°C  -5.3°C  1003.3 hPa  94%  33.9 km/h   --  16.1km  78%  Breezy and Mostly Cloudy 
 20/01/2018 - 14:00  1.6°C  -4.6°C  1004.0 hPa  93%  32.8 km/h   --  16.1km  81%  Breezy and Mostly Cloudy 
 20/01/2018 - 15:00  2.0°C  -4.0°C  1004.8 hPa  91%  31.3 km/h   0.01 mm/h  16.1km  88%  Breezy and Mostly Cloudy 
 20/01/2018 - 16:00  2.4°C  -3.4°C  1005.7 hPa  89%  30.1 km/h   0.01 mm/h  16.1km  89%  Breezy and Mostly Cloudy 
 20/01/2018 - 17:00  2.7°C  -2.8°C  1006.8 hPa  87%  29.0 km/h   0.01 mm/h  16.1km  79%  Breezy and Mostly Cloudy 
 20/01/2018 - 18:00  2.9°C  -2.5°C  1008.0 hPa  85%  27.8 km/h   0.02 mm/h  16.1km  64%  Breezy and Mostly Cloudy 
 20/01/2018 - 19:00  2.7°C  -2.5°C  1009.2 hPa  84%  26.1 km/h   0.03 mm/h  16.1km  52%  Partly Cloudy 
 20/01/2018 - 20:00  2.3°C  -2.8°C  1010.5 hPa  84%  23.7 km/h   0.02 mm/h  16.1km  47%  Partly Cloudy 
 20/01/2018 - 21:00  1.6°C  -3.3°C  1011.7 hPa  83%  21.0 km/h   0.01 mm/h  16.1km  42%  Partly Cloudy 
 20/01/2018 - 22:00  1.0°C  -3.8°C  1012.9 hPa  81%  18.2 km/h   0.01 mm/h  16.1km  40%  Partly Cloudy 
 20/01/2018 - 23:00  0.1°C  -4.2°C  1013.9 hPa  81%  14.7 km/h   0.01 mm/h  16.1km  41%  Partly Cloudy 
 21/01/2018 - 00:00  -0.8°C  -4.6°C  1014.8 hPa  80%  11.2 km/h   0.01 mm/h  16.1km  46%  Partly Cloudy 
 21/01/2018 - 01:00  -1.6°C  -4.8°C  1015.6 hPa  80%  8.6 km/h   0.02 mm/h  16.0km  51%  Partly Cloudy 
 21/01/2018 - 02:00  -2.3°C  -5.1°C  1016.3 hPa  80%  7.0 km/h   0.02 mm/h  12.2km  65%  Mostly Cloudy 
 21/01/2018 - 03:00  -3.1°C  -5.7°C  1016.8 hPa  81%  6.4 km/h   0.03 mm/h  8.2km  82%  Mostly Cloudy 
 21/01/2018 - 04:00  -3.7°C  -6.2°C  1017.4 hPa  82%  5.9 km/h   0.04 mm/h  5.5km  94%  Overcast 
 21/01/2018 - 05:00  -4.3°C  -6.6°C  1018.2 hPa  82%  5.3 km/h   0.04 mm/h  4.3km  96%  Overcast 
 21/01/2018 - 06:00  -4.8°C  -7.1°C  1019.0 hPa  83%  5.0 km/h   0.04 mm/h  4.4km  96%  Overcast 
 21/01/2018 - 07:00  -5.1°C  -7.4°C  1019.7 hPa  83%  4.9 km/h   0.03 mm/h  6.0km  94%  Overcast 
 21/01/2018 - 08:00  -5.1°C  -7.4°C  1020.3 hPa  82%  5.0 km/h   0.03 mm/h  10.4km  85%  Mostly Cloudy 
 21/01/2018 - 09:00  -4.7°C  -6.8°C  1020.9 hPa  80%  4.9 km/h   0.03 mm/h  16.1km  75%  Mostly Cloudy 
 21/01/2018 - 10:00  -4.2°C  -6.8°C  1021.2 hPa  78%  6.0 km/h   0.03 mm/h  16.1km  69%  Mostly Cloudy 
 21/01/2018 - 11:00  -3.5°C  -6.5°C  1021.2 hPa  76%  6.9 km/h   0.04 mm/h  16.1km  73%  Mostly Cloudy 
 21/01/2018 - 12:00  -3.0°C  -6.1°C  1021.0 hPa  74%  7.8 km/h   0.04 mm/h  16.1km  82%  Mostly Cloudy 
 21/01/2018 - 13:00  -2.6°C  -5.9°C  1020.9 hPa  73%  8.6 km/h   0.04 mm/h  16.1km  90%  Mostly Cloudy 
 21/01/2018 - 14:00  -2.6°C  -5.9°C  1020.9 hPa  74%  8.2 km/h   0.03 mm/h  16.1km  92%  Mostly Cloudy 
 21/01/2018 - 15:00  -2.9°C  -5.8°C  1021.0 hPa  77%  7.2 km/h   0.02 mm/h  16.1km  93%  Mostly Cloudy 
 21/01/2018 - 16:00  -3.4°C  -6.0°C  1021.3 hPa  80%  6.2 km/h   0.01 mm/h  16.1km  94%  Overcast 
 21/01/2018 - 17:00  -3.8°C  -6.5°C  1021.9 hPa  81%  6.2 km/h   0.01 mm/h  16.1km  96%  Overcast 
 21/01/2018 - 18:00  -4.3°C  -7.2°C  1022.8 hPa  82%  6.6 km/h   --  16.1km  98%  Overcast 
 21/01/2018 - 19:00  -4.5°C  -7.6°C  1023.6 hPa  82%  6.9 km/h   --  16.1km  99%  Overcast 
 21/01/2018 - 20:00  -4.6°C  -8.1°C  1024.2 hPa  81%  7.8 km/h   0.01 mm/h  16.1km  99%  Overcast 
 21/01/2018 - 21:00  -4.6°C  -8.5°C  1024.7 hPa  80%  9.2 km/h   0.04 mm/h  7.1km  100%  Overcast 
Test

 

Past weather and reports

Past weatherFind in this section the past weather conditions, weather archive, graphics, reports and statistics.

Current conditions

Current weather condition for MontrealAll you need to know about the current weather conditions for Montreal. Weather data is updated every 10 minutes.

Weather forecast

Current Montreal weatherSince 2004, celinium.com website has provided accurate weather forecast for Montreal's island.